createdAt,value
2018-12-02T00:02:07.754Z,94.34
2018-12-02T00:04:37.131Z,93.95
2018-12-02T00:07:21.181Z,94.43
2018-12-02T00:09:50.542Z,94.55
2018-12-02T00:12:19.768Z,94.68
2018-12-02T00:14:49.114Z,94.27
2018-12-02T00:17:18.563Z,94.36
2018-12-02T00:19:48.163Z,94.39
2018-12-02T00:22:17.656Z,94.30
2018-12-02T00:24:47.964Z,94.39
2018-12-02T00:27:17.592Z,94.68
2018-12-02T00:29:47.266Z,94.52
2018-12-02T00:32:16.880Z,94.11
2018-12-02T00:34:46.238Z,94.24
2018-12-02T00:37:15.710Z,94.07
2018-12-02T00:39:45.949Z,94.31
2018-12-02T00:42:15.243Z,94.42
2018-12-02T00:44:44.630Z,94.66
2018-12-02T00:47:14.082Z,94.05
2018-12-02T00:49:44.232Z,94.56
2018-12-02T00:52:13.642Z,93.99
2018-12-02T00:54:43.224Z,94.51
2018-12-02T00:57:12.633Z,94.44
2018-12-02T00:59:42.827Z,94.34
2018-12-02T01:02:12.247Z,94.07
2018-12-02T01:04:46.059Z,94.21
2018-12-02T01:07:15.378Z,94.48
2018-12-02T01:09:44.629Z,94.63
2018-12-02T01:12:14.313Z,94.52
2018-12-02T01:14:43.858Z,94.07
2018-12-02T01:17:13.325Z,94.74
2018-12-02T01:19:42.765Z,94.16
2018-12-02T01:22:12.619Z,94.48
2018-12-02T01:24:41.963Z,93.97
2018-12-02T01:27:11.292Z,93.87
2018-12-02T01:29:40.547Z,93.94
2018-12-02T01:32:10.523Z,94.30
2018-12-02T01:34:40.162Z,94.02
2018-12-02T01:37:09.799Z,93.65
2018-12-02T01:39:39.082Z,93.74
2018-12-02T01:42:09.232Z,93.91
2018-12-02T01:44:38.741Z,94.29
2018-12-02T01:47:07.956Z,94.22
2018-12-02T01:49:37.894Z,94.14
2018-12-02T01:52:08.129Z,93.87
2018-12-02T01:54:38.318Z,93.79
2018-12-02T01:57:08.436Z,93.94
2018-12-02T01:59:37.837Z,93.67
2018-12-02T02:02:07.210Z,94.45
2018-12-02T02:04:37.136Z,93.94
2018-12-02T02:07:07.277Z,93.70
2018-12-02T02:09:37.078Z,93.53
2018-12-02T02:12:06.737Z,93.84
2018-12-02T02:14:36.212Z,93.30
2018-12-02T02:17:06.303Z,93.34
2018-12-02T02:19:36.452Z,93.28
2018-12-02T02:22:05.882Z,92.96
2018-12-02T02:24:35.378Z,92.97
2018-12-02T02:27:04.813Z,92.85
2018-12-02T02:29:34.198Z,93.21
2018-12-02T02:32:04.517Z,92.99
2018-12-02T02:34:33.950Z,93.40
2018-12-02T02:37:03.750Z,93.32
2018-12-02T02:39:34.128Z,93.73
2018-12-02T02:42:04.131Z,93.66
2018-12-02T02:44:34.362Z,93.90
2018-12-02T02:47:04.815Z,94.01
2018-12-02T02:49:36.288Z,93.90
2018-12-02T02:52:06.913Z,94.13
2018-12-02T02:54:37.120Z,94.21
2018-12-02T02:57:07.162Z,94.41
2018-12-02T02:59:38.744Z,94.00
2018-12-02T03:02:09.303Z,94.45
2018-12-02T03:04:39.592Z,95.05
2018-12-02T03:07:09.627Z,95.56
2018-12-02T03:09:39.401Z,95.67
2018-12-02T03:12:08.734Z,95.60
2018-12-02T03:14:38.093Z,95.66
2018-12-02T03:17:07.819Z,95.84
2018-12-02T03:19:37.219Z,95.84
2018-12-02T03:22:07.482Z,95.96
2018-12-02T03:24:36.693Z,96.08
2018-12-02T03:27:06.107Z,96.35
2018-12-02T03:29:35.482Z,96.18
2018-12-02T03:32:05.235Z,96.60
2018-12-02T03:34:34.611Z,96.63
2018-12-02T03:37:04.704Z,96.89
2018-12-02T03:39:33.926Z,97.01
2018-12-02T03:42:03.283Z,97.08
2018-12-02T03:44:32.929Z,97.17
2018-12-02T03:47:02.542Z,96.51
2018-12-02T03:49:31.932Z,96.98
2018-12-02T03:52:01.908Z,97.03
2018-12-02T03:54:31.263Z,96.94
2018-12-02T03:57:00.654Z,96.79
2018-12-02T03:59:30.497Z,96.89
2018-12-02T04:02:00.898Z,97.00
2018-12-02T04:04:30.323Z,97.01
2018-12-02T04:07:00.339Z,96.94
2018-12-02T04:09:30.403Z,97.30
2018-12-02T04:11:59.895Z,97.40
2018-12-02T04:14:29.450Z,97.51
2018-12-02T04:16:58.976Z,97.75
2018-12-02T04:19:29.129Z,97.56
2018-12-02T04:21:59.382Z,97.16
2018-12-02T04:24:29.057Z,97.21
2018-12-02T04:26:59.479Z,97.23
2018-12-02T04:29:30.315Z,97.42
2018-12-02T04:32:00.306Z,97.40
2018-12-02T04:34:30.810Z,97.31
2018-12-02T04:37:00.504Z,97.46
2018-12-02T04:39:30.705Z,97.50
2018-12-02T04:42:00.026Z,97.43
2018-12-02T04:44:29.475Z,97.28
2018-12-02T04:47:00.928Z,97.43
2018-12-02T04:49:30.305Z,97.46
2018-12-02T04:51:59.570Z,97.14
2018-12-02T04:54:29.308Z,96.64
2018-12-02T04:56:59.573Z,96.98
2018-12-02T04:59:29.420Z,96.85
2018-12-02T05:01:58.710Z,96.84
2018-12-02T05:04:28.044Z,96.81
2018-12-02T05:06:57.850Z,97.22
2018-12-02T05:09:27.285Z,97.02
2018-12-02T05:11:56.648Z,97.14
2018-12-02T05:14:25.969Z,97.58
2018-12-02T05:16:55.993Z,97.43
2018-12-02T05:19:25.434Z,97.08
2018-12-02T05:21:55.942Z,97.10
2018-12-02T05:24:28.190Z,97.43
2018-12-02T05:26:57.745Z,97.38
2018-12-02T05:29:27.069Z,97.29
2018-12-02T05:31:56.315Z,97.43
2018-12-02T05:34:26.956Z,96.97
2018-12-02T05:36:56.593Z,96.98
2018-12-02T05:39:26.146Z,97.06
2018-12-02T05:42:00.910Z,97.21
2018-12-02T05:44:30.243Z,97.33
2018-12-02T05:46:59.745Z,97.24
2018-12-02T05:49:29.414Z,97.34
2018-12-02T05:51:58.751Z,97.28
2018-12-02T05:54:28.229Z,97.50
2018-12-02T05:56:58.256Z,97.78
2018-12-02T05:59:29.555Z,98.04
2018-12-02T06:01:59.645Z,98.34
2018-12-02T06:04:29.164Z,99.13
2018-12-02T06:06:59.534Z,99.48
2018-12-02T06:09:29.148Z,99.31
2018-12-02T06:11:58.820Z,99.53
2018-12-02T06:14:28.198Z,99.41
2018-12-02T06:16:57.875Z,99.77
2018-12-02T06:19:28.231Z,99.47
2018-12-02T06:21:58.064Z,99.50
2018-12-02T06:24:27.380Z,99.52
2018-12-02T06:26:56.745Z,99.42
2018-12-02T06:29:26.349Z,99.40
2018-12-02T06:31:56.040Z,98.90
2018-12-02T06:34:26.365Z,98.41
2018-12-02T06:36:56.636Z,98.95
2018-12-02T06:39:26.301Z,98.90
2018-12-02T06:41:55.865Z,99.38
2018-12-02T06:44:25.961Z,99.52
2018-12-02T06:46:56.248Z,99.70
2018-12-02T06:49:26.456Z,99.71
2018-12-02T06:51:56.699Z,99.98
2018-12-02T06:54:29.926Z,100.00
2018-12-02T06:57:00.914Z,100.00
2018-12-02T06:59:37.226Z,99.34
2018-12-02T07:02:13.944Z,99.48
2018-12-02T07:04:44.398Z,99.92
2018-12-02T07:07:14.564Z,100.00
2018-12-02T07:09:44.650Z,100.00
2018-12-02T07:12:14.145Z,100.00
2018-12-02T07:14:43.655Z,100.00
2018-12-02T07:17:13.216Z,100.00
2018-12-02T07:19:46.369Z,100.00
2018-12-02T07:22:20.196Z,100.00
2018-12-02T07:24:50.639Z,100.00
2018-12-02T07:27:20.837Z,100.00
2018-12-02T07:29:51.021Z,100.00
2018-12-02T07:32:20.776Z,100.00
2018-12-02T07:35:05.414Z,100.00
2018-12-02T07:37:54.510Z,100.00
2018-12-02T07:40:43.164Z,100.00
2018-12-02T07:43:13.960Z,100.00
2018-12-02T07:45:44.569Z,100.00
2018-12-02T07:48:14.132Z,100.00
2018-12-02T07:50:43.578Z,100.00
2018-12-02T07:53:14.479Z,100.00
2018-12-02T07:55:43.930Z,100.00
2018-12-02T07:58:16.014Z,100.00
2018-12-02T08:00:46.189Z,100.00
2018-12-02T08:03:15.615Z,100.00
2018-12-02T08:05:49.644Z,100.00
2018-12-02T08:08:18.961Z,100.00
2018-12-02T08:10:49.199Z,100.00
2018-12-02T08:13:19.685Z,99.91
2018-12-02T08:15:49.362Z,100.00
2018-12-02T08:18:19.389Z,100.00
2018-12-02T08:20:48.786Z,100.00
2018-12-02T08:23:18.173Z,100.00
2018-12-02T08:25:48.247Z,100.00
2018-12-02T08:28:17.592Z,100.00
2018-12-02T08:30:47.154Z,99.85
2018-12-02T08:33:16.719Z,98.85
2018-12-02T08:35:46.361Z,98.40
2018-12-02T08:38:15.706Z,98.63
2018-12-02T08:40:45.579Z,97.73
2018-12-02T08:43:15.460Z,97.82
2018-12-02T08:45:45.015Z,97.94
2018-12-02T08:48:15.469Z,97.46
2018-12-02T08:50:44.994Z,97.37
2018-12-02T08:53:14.701Z,96.75
2018-12-02T08:55:44.782Z,96.88
2018-12-02T08:58:14.398Z,97.44
2018-12-02T09:00:44.015Z,96.73
2018-12-02T09:03:13.419Z,96.81
2018-12-02T09:05:43.790Z,97.46
2018-12-02T09:08:13.673Z,97.69
2018-12-02T09:10:44.907Z,97.26
2018-12-02T09:13:13.246Z,97.25
2018-12-02T09:15:43.260Z,97.35
2018-12-02T09:18:12.650Z,97.45
2018-12-02T09:20:42.401Z,98.32
2018-12-02T09:23:13.121Z,97.58
2018-12-02T09:25:42.061Z,97.76
2018-12-02T09:28:12.244Z,98.14
2018-12-02T09:30:42.612Z,98.23
2018-12-02T09:33:12.590Z,98.40
2018-12-02T09:35:42.050Z,98.34
2018-12-02T09:38:11.841Z,98.33
2018-12-02T09:40:42.471Z,98.13
2018-12-02T09:43:12.235Z,97.79
2018-12-02T09:45:42.297Z,97.20
2018-12-02T09:48:13.061Z,97.16
2018-12-02T09:50:43.191Z,97.10
2018-12-02T09:53:13.274Z,96.86
2018-12-02T09:55:44.530Z,96.64
2018-12-02T09:58:21.840Z,96.31
2018-12-02T10:00:52.097Z,96.14
2018-12-02T10:03:22.884Z,96.18
2018-12-02T10:05:53.392Z,95.55
2018-12-02T10:08:23.502Z,95.49
2018-12-02T10:10:53.551Z,95.29
2018-12-02T10:13:24.555Z,95.08
2018-12-02T10:15:55.192Z,95.46
2018-12-02T10:18:25.951Z,93.89
2018-12-02T10:20:56.066Z,94.12
2018-12-02T10:23:28.165Z,93.51
2018-12-02T10:25:57.867Z,93.86
2018-12-02T10:28:28.151Z,93.84
2018-12-02T10:30:58.165Z,93.24
2018-12-02T10:33:28.415Z,92.75
2018-12-02T10:35:57.906Z,92.80
2018-12-02T10:38:27.234Z,92.98
2018-12-02T10:40:56.897Z,91.80
2018-12-02T10:43:26.281Z,90.89
2018-12-02T10:45:56.391Z,90.89
2018-12-02T10:48:26.481Z,91.55
2018-12-02T10:50:55.979Z,91.03
2018-12-02T10:53:25.839Z,91.44
2018-12-02T10:55:56.693Z,90.62
2018-12-02T10:58:29.937Z,91.15
2018-12-02T11:01:05.652Z,91.35
2018-12-02T11:03:35.409Z,91.55
2018-12-02T11:06:05.113Z,90.69
2018-12-02T11:08:34.762Z,91.12
2018-12-02T11:11:05.142Z,91.15
2018-12-02T11:13:34.647Z,91.33
2018-12-02T11:16:04.401Z,91.12
2018-12-02T11:18:33.992Z,90.92
2018-12-02T11:21:03.442Z,90.45
2018-12-02T11:23:33.018Z,90.66
2018-12-02T11:26:03.729Z,90.41
2018-12-02T11:28:33.364Z,89.92
2018-12-02T11:31:03.149Z,89.65
2018-12-02T11:33:32.936Z,86.50
2018-12-02T11:36:03.245Z,82.06
2018-12-02T11:38:33.143Z,81.49
2018-12-02T11:41:03.778Z,81.34
2018-12-02T11:43:36.540Z,82.00
2018-12-02T11:46:06.948Z,82.36
2018-12-02T11:48:36.306Z,83.40
2018-12-02T11:51:07.101Z,82.97
2018-12-02T11:53:36.684Z,82.74
2018-12-02T11:56:07.005Z,83.02
2018-12-02T11:58:36.700Z,82.45
2018-12-02T12:01:06.593Z,83.02
2018-12-02T12:03:36.916Z,83.34
2018-12-02T12:06:06.427Z,83.56
2018-12-02T12:08:36.041Z,82.78
2018-12-02T12:11:05.606Z,81.70
2018-12-02T12:13:35.250Z,82.23
2018-12-02T12:16:05.073Z,81.80
2018-12-02T12:18:34.739Z,79.65
2018-12-02T12:21:04.748Z,79.41
2018-12-02T12:23:34.254Z,76.62
2018-12-02T12:26:05.265Z,76.56
2018-12-02T12:28:35.345Z,75.99
2018-12-02T12:31:05.184Z,76.96
2018-12-02T12:33:34.776Z,78.08
2018-12-02T12:36:04.421Z,78.45
2018-12-02T12:38:33.956Z,78.80
2018-12-02T12:41:04.432Z,78.47
2018-12-02T12:43:35.771Z,79.28
2018-12-02T12:46:05.900Z,78.51
2018-12-02T12:48:35.773Z,79.70
2018-12-02T12:51:05.356Z,79.30
2018-12-02T12:53:34.990Z,79.83
2018-12-02T12:56:04.612Z,79.38
2018-12-02T12:58:34.520Z,79.08
2018-12-02T13:01:05.236Z,78.88
2018-12-02T13:03:35.691Z,79.26
2018-12-02T13:06:05.818Z,79.13
2018-12-02T13:08:35.811Z,79.37
2018-12-02T13:11:05.765Z,78.16
2018-12-02T13:13:35.528Z,78.29
2018-12-02T13:16:05.375Z,78.88
2018-12-02T13:18:35.360Z,78.60
2018-12-02T13:21:07.171Z,77.31
2018-12-02T13:23:39.451Z,78.01
2018-12-02T13:26:09.872Z,78.49
2018-12-02T13:28:40.543Z,78.39
2018-12-02T13:31:11.175Z,78.90
2018-12-02T13:33:42.550Z,78.54
2018-12-02T13:36:15.826Z,79.34
2018-12-02T13:38:48.127Z,79.16
2018-12-02T13:41:19.172Z,79.52
2018-12-02T13:43:50.926Z,79.08
2018-12-02T13:46:23.251Z,79.09
2018-12-02T13:48:55.924Z,79.82
2018-12-02T13:51:27.663Z,79.11
2018-12-02T13:54:09.419Z,79.39
2018-12-02T13:56:40.850Z,80.42
2018-12-02T13:59:11.120Z,80.93
2018-12-02T14:01:43.757Z,82.01
2018-12-02T14:04:17.010Z,81.55
2018-12-02T14:06:48.024Z,82.16
2018-12-02T14:09:21.841Z,82.11
2018-12-02T14:11:53.257Z,82.88
2018-12-02T14:14:23.283Z,83.32
2018-12-02T14:17:00.257Z,82.90
2018-12-02T14:19:30.167Z,83.89
2018-12-02T14:21:59.501Z,84.47
2018-12-02T14:24:29.001Z,84.71
2018-12-02T14:26:58.608Z,85.12
2018-12-02T14:29:36.768Z,84.51
2018-12-02T14:32:11.157Z,85.20
2018-12-02T14:34:40.746Z,85.23
2018-12-02T14:37:12.250Z,84.60
2018-12-02T14:39:42.238Z,85.12
2018-12-02T14:42:14.963Z,85.21
2018-12-02T14:44:48.354Z,85.02
2018-12-02T14:47:17.808Z,85.09
2018-12-02T14:49:47.456Z,85.94
2018-12-02T14:52:19.577Z,85.85
2018-12-02T14:54:49.214Z,86.24
2018-12-02T14:57:18.806Z,85.68
2018-12-02T14:59:48.397Z,85.99
2018-12-02T15:02:18.984Z,86.25
2018-12-02T15:04:49.231Z,86.29
2018-12-02T15:07:19.758Z,86.67
2018-12-02T15:09:49.571Z,87.28
2018-12-02T15:12:18.887Z,87.60
2018-12-02T15:14:49.815Z,89.11
2018-12-02T15:17:19.854Z,90.30
2018-12-02T15:19:51.480Z,90.62
2018-12-02T15:22:24.524Z,90.68
2018-12-02T15:24:57.586Z,90.91
2018-12-02T15:27:28.178Z,91.10
2018-12-02T15:29:59.003Z,91.72
2018-12-02T15:32:29.327Z,91.83
2018-12-02T15:35:00.409Z,92.09
2018-12-02T15:37:30.296Z,91.91
2018-12-02T15:39:59.645Z,91.78
2018-12-02T15:42:29.046Z,92.29
2018-12-02T15:44:58.592Z,92.96
2018-12-02T15:47:28.118Z,92.86
2018-12-02T15:49:57.430Z,92.69
2018-12-02T15:52:27.151Z,93.03
2018-12-02T15:54:56.997Z,92.90
2018-12-02T15:57:27.320Z,93.11
2018-12-02T15:59:56.909Z,93.60
2018-12-02T16:02:26.677Z,93.64
2018-12-02T16:04:56.298Z,94.06
2018-12-02T16:07:25.709Z,94.26
2018-12-02T16:09:56.072Z,94.25
2018-12-02T16:12:25.409Z,94.40
2018-12-02T16:14:55.559Z,94.66
2018-12-02T16:17:24.879Z,94.47
2018-12-02T16:19:54.218Z,95.13
2018-12-02T16:22:23.744Z,95.18
2018-12-02T16:24:54.485Z,95.40
2018-12-02T16:27:23.904Z,94.90
2018-12-02T16:29:53.820Z,95.16
2018-12-02T16:32:23.962Z,94.86
2018-12-02T16:34:53.380Z,94.99
2018-12-02T16:37:23.498Z,94.94
2018-12-02T16:39:53.159Z,94.81
2018-12-02T16:42:22.774Z,94.81
2018-12-02T16:45:01.915Z,95.02
2018-12-02T16:47:31.530Z,95.11
2018-12-02T16:50:02.378Z,94.94
2018-12-02T16:52:31.935Z,95.07
2018-12-02T16:55:01.724Z,94.61
2018-12-02T16:57:31.445Z,94.21
2018-12-02T17:00:00.838Z,93.99
2018-12-02T17:02:30.255Z,93.94
2018-12-02T17:04:59.743Z,93.96
2018-12-02T17:07:29.679Z,94.06
2018-12-02T17:10:00.010Z,93.52
2018-12-02T17:12:29.924Z,93.50
2018-12-02T17:15:00.199Z,93.61
2018-12-02T17:17:31.579Z,93.34
2018-12-02T17:20:01.657Z,93.85
2018-12-02T17:22:31.757Z,93.24
2018-12-02T17:25:02.329Z,93.19
2018-12-02T17:27:33.198Z,93.17
2018-12-02T17:30:03.199Z,92.84
2018-12-02T17:32:33.443Z,92.84
2018-12-02T17:35:03.983Z,92.62
2018-12-02T17:37:34.109Z,92.51
2018-12-02T17:40:05.235Z,92.37
2018-12-02T17:42:35.330Z,91.87
2018-12-02T17:45:05.383Z,91.64
2018-12-02T17:47:34.815Z,91.45
2018-12-02T17:50:05.303Z,91.39
2018-12-02T17:52:34.646Z,91.48
2018-12-02T17:55:04.548Z,91.21
2018-12-02T17:57:34.214Z,91.34
2018-12-02T18:00:03.796Z,91.56
2018-12-02T18:02:34.084Z,91.54
2018-12-02T18:05:04.399Z,91.32
2018-12-02T18:07:35.030Z,91.37
2018-12-02T18:10:05.133Z,91.39
2018-12-02T18:12:34.830Z,91.25
2018-12-02T18:15:05.886Z,91.62
2018-12-02T18:17:35.568Z,91.62
2018-12-02T18:20:06.726Z,91.08
2018-12-02T18:22:36.484Z,90.65
2018-12-02T18:25:08.773Z,90.72
2018-12-02T18:27:38.995Z,90.51
2018-12-02T18:30:16.876Z,90.43
2018-12-02T18:32:46.681Z,90.53
2018-12-02T18:35:55.650Z,90.96
2018-12-02T18:38:26.486Z,90.88
2018-12-02T18:41:05.825Z,90.78
2018-12-02T18:43:35.659Z,90.95
2018-12-02T18:46:05.199Z,90.55
2018-12-02T18:48:35.250Z,90.68
2018-12-02T18:51:05.558Z,90.54
2018-12-02T18:53:35.403Z,90.20
2018-12-02T18:56:05.940Z,90.12
2018-12-02T18:58:36.014Z,90.32
2018-12-02T19:01:07.167Z,90.24
2018-12-02T19:03:37.565Z,90.55
2018-12-02T19:06:07.735Z,90.52
2018-12-02T19:08:37.611Z,90.37
2018-12-02T19:11:07.938Z,90.22
2018-12-02T19:13:43.252Z,90.44
2018-12-02T19:16:08.366Z,90.33
2018-12-02T19:18:38.263Z,90.23
2018-12-02T19:21:12.433Z,90.09
2018-12-02T19:23:43.850Z,90.71
2018-12-02T19:26:15.021Z,91.14
2018-12-02T19:28:45.359Z,90.90
2018-12-02T19:31:15.331Z,91.46
2018-12-02T19:33:45.584Z,91.43
2018-12-02T19:36:18.975Z,90.97
2018-12-02T19:38:49.277Z,90.63
2018-12-02T19:41:18.974Z,90.90
2018-12-02T19:43:48.775Z,90.77
2018-12-02T19:46:18.311Z,90.43
2018-12-02T19:48:47.752Z,90.40
2018-12-02T19:51:24.770Z,90.65
2018-12-02T19:53:54.659Z,89.79
2018-12-02T19:56:24.230Z,90.01
2018-12-02T19:58:54.256Z,90.06
2018-12-02T20:01:23.899Z,89.58
2018-12-02T20:03:54.151Z,89.71
2018-12-02T20:06:23.606Z,89.96
2018-12-02T20:08:53.077Z,89.53
2018-12-02T20:11:22.610Z,89.58
2018-12-02T20:13:52.458Z,89.10
2018-12-02T20:16:22.166Z,89.14
2018-12-02T20:18:51.951Z,89.43
2018-12-02T20:21:23.460Z,89.49
2018-12-02T20:23:58.504Z,89.21
2018-12-02T20:26:28.421Z,88.99
2018-12-02T20:28:58.891Z,89.86
2018-12-02T20:31:29.865Z,89.62
2018-12-02T20:33:59.686Z,89.78
2018-12-02T20:36:29.324Z,89.74
2018-12-02T20:38:58.915Z,90.32
2018-12-02T20:41:28.562Z,90.44
2018-12-02T20:43:59.707Z,90.93
2018-12-02T20:46:29.316Z,91.23
2018-12-02T20:48:59.000Z,91.14
2018-12-02T20:51:28.881Z,91.18
2018-12-02T20:53:58.598Z,91.03
2018-12-02T20:56:28.081Z,90.65
2018-12-02T20:58:58.053Z,90.39
2018-12-02T21:01:27.890Z,90.59
2018-12-02T21:03:58.368Z,90.00
2018-12-02T21:06:28.065Z,90.44
2018-12-02T21:08:57.859Z,90.39
2018-12-02T21:11:27.912Z,90.42
2018-12-02T21:13:58.309Z,90.18
2018-12-02T21:16:28.466Z,90.15
2018-12-02T21:18:58.527Z,90.63
2018-12-02T21:21:27.992Z,90.56
2018-12-02T21:23:57.824Z,90.23
2018-12-02T21:26:27.470Z,89.83
2018-12-02T21:28:57.452Z,90.22
2018-12-02T21:31:26.930Z,90.00
2018-12-02T21:33:56.651Z,90.16
2018-12-02T21:36:26.619Z,89.72
2018-12-02T21:38:56.676Z,89.36
2018-12-02T21:41:26.387Z,89.43
2018-12-02T21:43:55.919Z,89.65
2018-12-02T21:46:25.535Z,89.45
2018-12-02T21:48:55.109Z,89.39
2018-12-02T21:51:24.669Z,89.54
2018-12-02T21:53:54.330Z,89.31
2018-12-02T21:56:23.876Z,89.43
2018-12-02T21:58:53.486Z,89.26
2018-12-02T22:01:23.417Z,88.99
2018-12-02T22:03:53.165Z,89.11
2018-12-02T22:06:22.633Z,89.00
2018-12-02T22:08:52.058Z,89.24
2018-12-02T22:11:23.897Z,88.95
2018-12-02T22:13:54.266Z,88.92
2018-12-02T22:16:25.365Z,88.21
2018-12-02T22:18:56.979Z,88.25
2018-12-02T22:21:26.882Z,88.24
2018-12-02T22:24:01.261Z,88.25
2018-12-02T22:26:31.357Z,88.00
2018-12-02T22:29:03.506Z,88.09
2018-12-02T22:31:34.752Z,88.15
2018-12-02T22:34:06.485Z,88.19
2018-12-02T22:36:36.997Z,88.29
2018-12-02T22:39:11.385Z,88.18
2018-12-02T22:41:42.255Z,88.40
2018-12-02T22:44:14.981Z,88.10
2018-12-02T22:46:48.599Z,88.54
2018-12-02T22:49:21.616Z,87.90
2018-12-02T22:51:51.144Z,88.28
2018-12-02T22:54:21.790Z,88.15
2018-12-02T22:56:51.213Z,88.38
2018-12-02T22:59:20.746Z,88.42
2018-12-02T23:02:53.631Z,88.35
2018-12-02T23:05:23.964Z,88.45
2018-12-02T23:07:54.294Z,88.84
2018-12-02T23:10:24.371Z,88.65
2018-12-02T23:12:54.513Z,88.54
2018-12-02T23:15:23.172Z,88.64
2018-12-02T23:17:53.314Z,88.70
2018-12-02T23:20:22.868Z,88.79
2018-12-02T23:22:54.564Z,88.38
2018-12-02T23:25:24.081Z,88.73
2018-12-02T23:27:53.669Z,88.38
2018-12-02T23:30:24.536Z,87.89
2018-12-02T23:32:54.206Z,88.67
2018-12-02T23:35:23.616Z,88.88
2018-12-02T23:37:53.625Z,88.62
2018-12-02T23:40:24.867Z,88.54
2018-12-02T23:42:54.943Z,88.48
2018-12-02T23:45:25.349Z,88.89
2018-12-02T23:47:55.500Z,88.93
2018-12-02T23:50:25.449Z,88.92
2018-12-02T23:52:55.411Z,88.84
2018-12-02T23:55:25.444Z,89.33
2018-12-02T23:57:54.758Z,90.53
